sensor_id;sensor_type;location;lat;lon;timestamp;pressure;altitude;pressure_sealevel;temperature;humidity
10115;BME280;5097;43.260;27.812;2023-05-12T00:01:42;100720.75;;;9.03;98.35
10115;BME280;5097;43.260;27.812;2023-05-12T00:04:26;100722.84;;;9.17;97.24
10115;BME280;5097;43.260;27.812;2023-05-12T00:07:10;100722.00;;;9.17;97.85
10115;BME280;5097;43.260;27.812;2023-05-12T00:09:55;100665.19;;;8.86;97.72
10115;BME280;5097;43.260;27.812;2023-05-12T00:12:38;100688.53;;;8.71;98.12
10115;BME280;5097;43.260;27.812;2023-05-12T00:15:22;100720.56;;;9.08;97.92
10115;BME280;5097;43.260;27.812;2023-05-12T00:18:06;100725.81;;;9.10;97.88
10115;BME280;5097;43.260;27.812;2023-05-12T00:20:50;100722.63;;;9.00;98.01
10115;BME280;5097;43.260;27.812;2023-05-12T00:23:35;100715.06;;;8.91;98.47
10115;BME280;5097;43.260;27.812;2023-05-12T00:26:21;100709.78;;;8.91;98.06
10115;BME280;5097;43.260;27.812;2023-05-12T00:29:06;100702.22;;;8.81;99.07
10115;BME280;5097;43.260;27.812;2023-05-12T00:31:49;100716.03;;;8.88;98.95
10115;BME280;5097;43.260;27.812;2023-05-12T00:34:33;100725.28;;;9.00;97.95
10115;BME280;5097;43.260;27.812;2023-05-12T00:37:17;100720.88;;;9.00;97.90
10115;BME280;5097;43.260;27.812;2023-05-12T00:40:01;100718.50;;;8.93;98.27
10115;BME280;5097;43.260;27.812;2023-05-12T00:42:48;100713.03;;;8.99;98.19
10115;BME280;5097;43.260;27.812;2023-05-12T00:45:32;100716.09;;;8.86;99.03
10115;BME280;5097;43.260;27.812;2023-05-12T00:48:16;100705.16;;;8.74;99.12
10115;BME280;5097;43.260;27.812;2023-05-12T00:51:00;100717.13;;;8.82;99.19
10115;BME280;5097;43.260;27.812;2023-05-12T00:53:48;100723.03;;;8.89;98.56
10115;BME280;5097;43.260;27.812;2023-05-12T00:56:33;100706.31;;;8.90;98.60
10115;BME280;5097;43.260;27.812;2023-05-12T00:59:23;100718.84;;;8.83;98.93
10115;BME280;5097;43.260;27.812;2023-05-12T01:02:07;100714.44;;;8.84;98.87
10115;BME280;5097;43.260;27.812;2023-05-12T01:04:52;100715.41;;;8.81;99.60
10115;BME280;5097;43.260;27.812;2023-05-12T01:07:37;100667.53;;;8.45;99.97
10115;BME280;5097;43.260;27.812;2023-05-12T01:10:22;100711.22;;;8.76;100.00
10115;BME280;5097;43.260;27.812;2023-05-12T01:13:06;100704.13;;;8.78;99.65
10115;BME280;5097;43.260;27.812;2023-05-12T01:15:52;100672.50;;;8.54;99.71
10115;BME280;5097;43.260;27.812;2023-05-12T01:18:39;100708.72;;;8.72;100.00
10115;BME280;5097;43.260;27.812;2023-05-12T01:21:30;100671.91;;;8.46;100.00
10115;BME280;5097;43.260;27.812;2023-05-12T01:24:16;100668.44;;;8.44;100.00
10115;BME280;5097;43.260;27.812;2023-05-12T01:27:05;100674.72;;;8.39;100.00
10115;BME280;5097;43.260;27.812;2023-05-12T01:29:50;100704.47;;;8.68;100.00
10115;BME280;5097;43.260;27.812;2023-05-12T01:32:35;100702.53;;;8.74;100.00
10115;BME280;5097;43.260;27.812;2023-05-12T01:35:21;100701.00;;;8.66;100.00
10115;BME280;5097;43.260;27.812;2023-05-12T01:38:11;100698.16;;;8.72;100.00
10115;BME280;5097;43.260;27.812;2023-05-12T01:40:55;100691.22;;;8.70;100.00
10115;BME280;5097;43.260;27.812;2023-05-12T01:43:41;100685.22;;;8.66;100.00
10115;BME280;5097;43.260;27.812;2023-05-12T01:46:25;100679.25;;;8.61;100.00
10115;BME280;5097;43.260;27.812;2023-05-12T01:49:12;100678.13;;;8.68;100.00
10115;BME280;5097;43.260;27.812;2023-05-12T01:51:56;100691.22;;;8.70;100.00
10115;BME280;5097;43.260;27.812;2023-05-12T01:54:44;100692.41;;;8.61;100.00
10115;BME280;5097;43.260;27.812;2023-05-12T01:57:29;100685.66;;;8.54;100.00
10115;BME280;5097;43.260;27.812;2023-05-12T02:00:16;100689.44;;;8.47;100.00
10115;BME280;5097;43.260;27.812;2023-05-12T02:03:03;100687.28;;;8.31;100.00
10115;BME280;5097;43.260;27.812;2023-05-12T02:05:47;100683.69;;;8.34;100.00
10115;BME280;5097;43.260;27.812;2023-05-12T02:08:31;100652.66;;;8.18;100.00
10115;BME280;5097;43.260;27.812;2023-05-12T02:11:15;100693.69;;;8.24;100.00
10115;BME280;5097;43.260;27.812;2023-05-12T02:13:59;100676.06;;;8.26;100.00
10115;BME280;5097;43.260;27.812;2023-05-12T02:16:45;100673.38;;;8.28;100.00
10115;BME280;5097;43.260;27.812;2023-05-12T02:19:35;100677.59;;;8.33;100.00
10115;BME280;5097;43.260;27.812;2023-05-12T02:22:19;100671.56;;;8.30;100.00
10115;BME280;5097;43.260;27.812;2023-05-12T02:25:04;100678.75;;;8.25;100.00
10115;BME280;5097;43.260;27.812;2023-05-12T02:27:49;100684.53;;;8.36;100.00
10115;BME280;5097;43.260;27.812;2023-05-12T02:30:33;100681.31;;;8.26;100.00
10115;BME280;5097;43.260;27.812;2023-05-12T02:33:20;100688.84;;;8.37;100.00
10115;BME280;5097;43.260;27.812;2023-05-12T02:36:05;100681.25;;;8.28;100.00
10115;BME280;5097;43.260;27.812;2023-05-12T02:38:49;100682.94;;;8.30;100.00
10115;BME280;5097;43.260;27.812;2023-05-12T02:41:33;100675.69;;;8.37;100.00
10115;BME280;5097;43.260;27.812;2023-05-12T02:44:17;100688.91;;;8.35;100.00
10115;BME280;5097;43.260;27.812;2023-05-12T02:47:05;100679.13;;;8.39;100.00
10115;BME280;5097;43.260;27.812;2023-05-12T02:49:50;100676.44;;;8.41;100.00
10115;BME280;5097;43.260;27.812;2023-05-12T02:52:34;100679.28;;;8.34;100.00
10115;BME280;5097;43.260;27.812;2023-05-12T02:55:18;100690.13;;;8.52;100.00
10115;BME280;5097;43.260;27.812;2023-05-12T02:58:02;100684.06;;;8.50;100.00
10115;BME280;5097;43.260;27.812;2023-05-12T03:00:46;100684.13;;;8.48;100.00
10115;BME280;5097;43.260;27.812;2023-05-12T03:03:41;100685.31;;;8.63;100.00
10115;BME280;5097;43.260;27.812;2023-05-12T03:06:28;100700.91;;;8.69;100.00
10115;BME280;5097;43.260;27.812;2023-05-12T03:09:12;100701.00;;;8.66;100.00
10115;BME280;5097;43.260;27.812;2023-05-12T03:11:56;100691.03;;;8.76;100.00
10115;BME280;5097;43.260;27.812;2023-05-12T03:14:40;100678.69;;;8.77;100.00
10115;BME280;5097;43.260;27.812;2023-05-12T03:17:24;100702.06;;;8.86;100.00
10115;BME280;5097;43.260;27.812;2023-05-12T03:20:09;100700.59;;;9.02;99.60
10115;BME280;5097;43.260;27.812;2023-05-12T03:22:55;100697.53;;;9.13;99.06
10115;BME280;5097;43.260;27.812;2023-05-12T03:25:39;100700.28;;;9.10;99.38
10115;BME280;5097;43.260;27.812;2023-05-12T03:28:23;100704.47;;;9.16;99.60
10115;BME280;5097;43.260;27.812;2023-05-12T03:31:07;100714.22;;;9.14;99.40
10115;BME280;5097;43.260;27.812;2023-05-12T03:33:52;100705.91;;;9.25;99.05
10115;BME280;5097;43.260;27.812;2023-05-12T03:36:36;100712.72;;;9.30;98.94
10115;BME280;5097;43.260;27.812;2023-05-12T03:39:21;100711.13;;;9.26;98.90
10115;BME280;5097;43.260;27.812;2023-05-12T03:42:07;100718.00;;;9.30;98.85
10115;BME280;5097;43.260;27.812;2023-05-12T03:44:50;100709.03;;;9.34;98.34
10115;BME280;5097;43.260;27.812;2023-05-12T03:47:34;100701.47;;;9.49;97.43
10115;BME280;5097;43.260;27.812;2023-05-12T03:50:19;100702.44;;;9.46;97.18
10115;BME280;5097;43.260;27.812;2023-05-12T03:53:04;100723.91;;;9.59;96.95
10115;BME280;5097;43.260;27.812;2023-05-12T03:55:50;100705.03;;;9.70;96.11
10115;BME280;5097;43.260;27.812;2023-05-12T03:58:34;100711.16;;;9.70;95.96
10115;BME280;5097;43.260;27.812;2023-05-12T04:01:19;100710.56;;;9.84;94.79
10115;BME280;5097;43.260;27.812;2023-05-12T04:04:03;100714.19;;;9.82;95.42
10115;BME280;5097;43.260;27.812;2023-05-12T04:06:47;100706.50;;;9.77;95.17
10115;BME280;5097;43.260;27.812;2023-05-12T04:09:33;100702.41;;;9.90;94.52
10115;BME280;5097;43.260;27.812;2023-05-12T04:12:20;100707.94;;;10.06;93.98
10115;BME280;5097;43.260;27.812;2023-05-12T04:15:05;100713.81;;;9.91;94.26
10115;BME280;5097;43.260;27.812;2023-05-12T04:17:49;100714.13;;;10.05;93.85
10115;BME280;5097;43.260;27.812;2023-05-12T04:20:34;100713.66;;;10.16;93.14
10115;BME280;5097;43.260;27.812;2023-05-12T04:23:18;100716.22;;;10.19;93.54
10115;BME280;5097;43.260;27.812;2023-05-12T04:26:03;100722.09;;;10.26;92.40
10115;BME280;5097;43.260;27.812;2023-05-12T04:28:49;100719.97;;;10.34;92.38
10115;BME280;5097;43.260;27.812;2023-05-12T04:31:33;100715.31;;;10.41;92.38
10115;BME280;5097;43.260;27.812;2023-05-12T04:34:19;100719.75;;;10.61;92.32
10115;BME280;5097;43.260;27.812;2023-05-12T04:37:04;100723.91;;;10.86;90.77
10115;BME280;5097;43.260;27.812;2023-05-12T04:39:49;100716.06;;;10.84;90.76
10115;BME280;5097;43.260;27.812;2023-05-12T04:42:33;100726.59;;;11.05;90.10
10115;BME280;5097;43.260;27.812;2023-05-12T04:45:19;100713.41;;;11.24;89.52
10115;BME280;5097;43.260;27.812;2023-05-12T04:48:04;100713.81;;;11.15;89.07
10115;BME280;5097;43.260;27.812;2023-05-12T04:50:48;100720.09;;;11.31;87.73
10115;BME280;5097;43.260;27.812;2023-05-12T04:53:32;100715.53;;;11.35;88.47
10115;BME280;5097;43.260;27.812;2023-05-12T04:56:17;100689.22;;;11.32;87.68
10115;BME280;5097;43.260;27.812;2023-05-12T04:59:01;100715.59;;;11.52;87.14
10115;BME280;5097;43.260;27.812;2023-05-12T05:01:47;100705.78;;;11.73;85.83
10115;BME280;5097;43.260;27.812;2023-05-12T05:04:31;100706.72;;;11.90;85.50
10115;BME280;5097;43.260;27.812;2023-05-12T05:07:15;100685.59;;;11.71;83.51
10115;BME280;5097;43.260;27.812;2023-05-12T05:09:59;100663.72;;;11.67;83.27
10115;BME280;5097;43.260;27.812;2023-05-12T05:12:46;100718.09;;;12.29;81.19
10115;BME280;5097;43.260;27.812;2023-05-12T05:15:31;100715.19;;;12.33;81.30
10115;BME280;5097;43.260;27.812;2023-05-12T05:18:16;100704.91;;;12.45;80.09
10115;BME280;5097;43.260;27.812;2023-05-12T05:21:03;100719.50;;;12.69;78.46
10115;BME280;5097;43.260;27.812;2023-05-12T05:23:47;100644.28;;;12.38;78.76
10115;BME280;5097;43.260;27.812;2023-05-12T05:26:31;100728.34;;;12.86;76.62
10115;BME280;5097;43.260;27.812;2023-05-12T05:29:15;100733.88;;;12.99;77.02
10115;BME280;5097;43.260;27.812;2023-05-12T05:31:59;100724.09;;;13.17;74.63
10115;BME280;5097;43.260;27.812;2023-05-12T05:34:45;100743.63;;;12.98;73.42
10115;BME280;5097;43.260;27.812;2023-05-12T05:37:29;100750.00;;;13.12;71.69
10115;BME280;5097;43.260;27.812;2023-05-12T05:40:13;100732.22;;;13.30;71.21
10115;BME280;5097;43.260;27.812;2023-05-12T05:42:57;100740.22;;;13.12;69.19
10115;BME280;5097;43.260;27.812;2023-05-12T05:45:41;100747.00;;;13.18;68.50
10115;BME280;5097;43.260;27.812;2023-05-12T05:48:25;100714.94;;;13.22;68.56
10115;BME280;5097;43.260;27.812;2023-05-12T05:51:11;100736.84;;;13.26;67.71
10115;BME280;5097;43.260;27.812;2023-05-12T05:53:55;100729.19;;;13.37;65.85
10115;BME280;5097;43.260;27.812;2023-05-12T05:56:39;100745.13;;;13.20;65.94
10115;BME280;5097;43.260;27.812;2023-05-12T05:59:23;100747.66;;;13.55;65.69
10115;BME280;5097;43.260;27.812;2023-05-12T06:02:07;100738.88;;;13.70;64.44
10115;BME280;5097;43.260;27.812;2023-05-12T06:04:51;100706.56;;;13.30;65.29
10115;BME280;5097;43.260;27.812;2023-05-12T06:07:36;100737.25;;;13.98;62.83
10115;BME280;5097;43.260;27.812;2023-05-12T06:10:20;100723.34;;;13.79;62.77
10115;BME280;5097;43.260;27.812;2023-05-12T06:13:04;100732.38;;;14.06;62.06
10115;BME280;5097;43.260;27.812;2023-05-12T06:15:48;100743.88;;;14.37;61.27
10115;BME280;5097;43.260;27.812;2023-05-12T06:18:32;100735.66;;;14.56;58.62
10115;BME280;5097;43.260;27.812;2023-05-12T06:21:19;100743.94;;;14.66;54.36
10115;BME280;5097;43.260;27.812;2023-05-12T06:24:05;100732.94;;;14.72;52.43
10115;BME280;5097;43.260;27.812;2023-05-12T06:26:49;100745.78;;;15.09;52.58
10115;BME280;5097;43.260;27.812;2023-05-12T06:29:33;100722.75;;;15.37;52.27
10115;BME280;5097;43.260;27.812;2023-05-12T06:32:17;100748.66;;;15.20;51.30
10115;BME280;5097;43.260;27.812;2023-05-12T06:35:01;100747.97;;;15.02;51.17
10115;BME280;5097;43.260;27.812;2023-05-12T06:37:45;100743.38;;;15.48;50.46
10115;BME280;5097;43.260;27.812;2023-05-12T06:40:32;100735.03;;;15.39;47.86
10115;BME280;5097;43.260;27.812;2023-05-12T06:43:16;100738.84;;;16.04;45.03
10115;BME280;5097;43.260;27.812;2023-05-12T06:46:00;100740.44;;;15.94;46.91
10115;BME280;5097;43.260;27.812;2023-05-12T06:48:44;100742.66;;;15.73;43.75
10115;BME280;5097;43.260;27.812;2023-05-12T06:51:28;100747.03;;;16.01;44.14
10115;BME280;5097;43.260;27.812;2023-05-12T06:54:13;100747.66;;;15.78;44.45
10115;BME280;5097;43.260;27.812;2023-05-12T06:56:58;100739.88;;;15.74;43.87
10115;BME280;5097;43.260;27.812;2023-05-12T06:59:42;100741.75;;;16.14;44.27
10115;BME280;5097;43.260;27.812;2023-05-12T07:02:25;100752.47;;;16.40;44.57
10115;BME280;5097;43.260;27.812;2023-05-12T07:05:10;100751.72;;;15.98;44.97
10115;BME280;5097;43.260;27.812;2023-05-12T07:07:54;100746.09;;;16.68;44.60
10115;BME280;5097;43.260;27.812;2023-05-12T07:10:38;100751.16;;;15.92;45.58
10115;BME280;5097;43.260;27.812;2023-05-12T07:13:23;100746.47;;;15.83;44.71
10115;BME280;5097;43.260;27.812;2023-05-12T07:16:07;100749.38;;;16.06;44.69
10115;BME280;5097;43.260;27.812;2023-05-12T07:18:51;100755.00;;;16.29;45.74
10115;BME280;5097;43.260;27.812;2023-05-12T07:21:35;100751.66;;;16.65;44.32
10115;BME280;5097;43.260;27.812;2023-05-12T07:24:19;100761.03;;;16.58;45.41
10115;BME280;5097;43.260;27.812;2023-05-12T07:27:03;100764.41;;;16.34;44.50
10115;BME280;5097;43.260;27.812;2023-05-12T07:29:48;100739.81;;;16.03;44.16
10115;BME280;5097;43.260;27.812;2023-05-12T07:32:32;100759.34;;;16.83;44.72
10115;BME280;5097;43.260;27.812;2023-05-12T07:35:16;100761.47;;;16.65;44.48
10115;BME280;5097;43.260;27.812;2023-05-12T07:38:00;100755.72;;;16.18;45.29
10115;BME280;5097;43.260;27.812;2023-05-12T07:40:46;100761.69;;;16.62;43.65
10115;BME280;5097;43.260;27.812;2023-05-12T07:43:30;100765.53;;;16.57;44.68
10115;BME280;5097;43.260;27.812;2023-05-12T07:46:15;100759.16;;;16.99;43.81
10115;BME280;5097;43.260;27.812;2023-05-12T07:48:59;100760.13;;;17.11;43.03
10115;BME280;5097;43.260;27.812;2023-05-12T07:51:43;100754.69;;;17.49;43.27
10115;BME280;5097;43.260;27.812;2023-05-12T07:54:27;100760.81;;;17.38;43.12
10115;BME280;5097;43.260;27.812;2023-05-12T07:57:11;100759.88;;;16.88;43.27
10115;BME280;5097;43.260;27.812;2023-05-12T07:59:54;100680.91;;;16.47;43.62
10115;BME280;5097;43.260;27.812;2023-05-12T08:02:40;100771.50;;;17.38;42.86
10115;BME280;5097;43.260;27.812;2023-05-12T08:05:24;100771.13;;;17.06;39.95
10115;BME280;5097;43.260;27.812;2023-05-12T08:08:08;100771.00;;;17.20;40.77
10115;BME280;5097;43.260;27.812;2023-05-12T08:10:58;100777.81;;;16.86;39.99
10115;BME280;5097;43.260;27.812;2023-05-12T08:13:42;100780.72;;;17.21;40.17
10115;BME280;5097;43.260;27.812;2023-05-12T08:16:26;100788.50;;;17.12;38.35
10115;BME280;5097;43.260;27.812;2023-05-12T08:19:11;100780.19;;;17.03;39.17
10115;BME280;5097;43.260;27.812;2023-05-12T08:21:55;100783.22;;;16.71;39.70
10115;BME280;5097;43.260;27.812;2023-05-12T08:24:39;100782.72;;;16.79;41.38
10115;BME280;5097;43.260;27.812;2023-05-12T08:27:23;100789.56;;;16.70;40.27
10115;BME280;5097;43.260;27.812;2023-05-12T08:30:08;100791.78;;;16.76;40.95
10115;BME280;5097;43.260;27.812;2023-05-12T08:32:52;100774.50;;;16.69;41.09
10115;BME280;5097;43.260;27.812;2023-05-12T08:35:38;100768.13;;;17.11;39.74
10115;BME280;5097;43.260;27.812;2023-05-12T08:38:22;100789.25;;;17.01;40.15
10115;BME280;5097;43.260;27.812;2023-05-12T08:41:11;100780.16;;;17.29;38.32
10115;BME280;5097;43.260;27.812;2023-05-12T08:43:59;100794.44;;;17.54;38.22
10115;BME280;5097;43.260;27.812;2023-05-12T08:46:43;100796.94;;;17.31;39.25
10115;BME280;5097;43.260;27.812;2023-05-12T08:49:28;100792.06;;;17.62;36.40
10115;BME280;5097;43.260;27.812;2023-05-12T08:52:15;100785.81;;;17.74;33.21
10115;BME280;5097;43.260;27.812;2023-05-12T08:55:03;100789.47;;;17.36;36.54
10115;BME280;5097;43.260;27.812;2023-05-12T08:57:48;100783.81;;;17.65;33.88
10115;BME280;5097;43.260;27.812;2023-05-12T09:00:33;100793.28;;;17.82;33.18
10115;BME280;5097;43.260;27.812;2023-05-12T09:03:19;100788.84;;;18.07;32.32
10115;BME280;5097;43.260;27.812;2023-05-12T09:06:04;100807.72;;;17.80;33.35
10115;BME280;5097;43.260;27.812;2023-05-12T09:08:50;100795.88;;;18.08;32.80
10115;BME280;5097;43.260;27.812;2023-05-12T09:11:34;100783.59;;;18.30;32.54
10115;BME280;5097;43.260;27.812;2023-05-12T09:14:23;100798.09;;;17.90;32.35
10115;BME280;5097;43.260;27.812;2023-05-12T09:17:08;100802.16;;;17.83;33.51
10115;BME280;5097;43.260;27.812;2023-05-12T09:19:53;100790.00;;;18.27;32.27
10115;BME280;5097;43.260;27.812;2023-05-12T09:22:37;100796.00;;;17.69;32.52
10115;BME280;5097;43.260;27.812;2023-05-12T09:25:22;100736.63;;;17.53;32.26
10115;BME280;5097;43.260;27.812;2023-05-12T09:28:07;100738.69;;;17.73;33.11
10115;BME280;5097;43.260;27.812;2023-05-12T09:30:51;100787.72;;;19.16;32.43
10115;BME280;5097;43.260;27.812;2023-05-12T09:33:35;100774.19;;;19.18;31.69
10115;BME280;5097;43.260;27.812;2023-05-12T09:36:20;100775.81;;;18.02;33.69
10115;BME280;5097;43.260;27.812;2023-05-12T09:39:06;100778.16;;;18.42;32.75
10115;BME280;5097;43.260;27.812;2023-05-12T09:41:52;100785.84;;;18.12;32.47
10115;BME280;5097;43.260;27.812;2023-05-12T09:44:37;100777.22;;;19.02;32.18
10115;BME280;5097;43.260;27.812;2023-05-12T09:47:26;100782.72;;;19.00;33.70
10115;BME280;5097;43.260;27.812;2023-05-12T09:50:10;100771.88;;;18.55;32.65
10115;BME280;5097;43.260;27.812;2023-05-12T09:52:54;100776.84;;;17.75;32.26
10115;BME280;5097;43.260;27.812;2023-05-12T09:55:42;100768.69;;;17.53;32.00
10115;BME280;5097;43.260;27.812;2023-05-12T09:58:27;100770.41;;;18.15;32.03
10115;BME280;5097;43.260;27.812;2023-05-12T10:01:15;100771.00;;;18.07;32.80
10115;BME280;5097;43.260;27.812;2023-05-12T10:04:05;100776.88;;;19.06;33.25
10115;BME280;5097;43.260;27.812;2023-05-12T10:06:51;100771.78;;;19.15;32.49
10115;BME280;5097;43.260;27.812;2023-05-12T10:09:36;100773.47;;;19.16;32.22
10115;BME280;5097;43.260;27.812;2023-05-12T10:12:21;100776.69;;;18.85;32.95
10115;BME280;5097;43.260;27.812;2023-05-12T10:15:08;100774.59;;;18.66;32.99
10115;BME280;5097;43.260;27.812;2023-05-12T10:17:53;100770.63;;;18.12;33.11
10115;BME280;5097;43.260;27.812;2023-05-12T10:20:38;100769.44;;;17.92;33.78
10115;BME280;5097;43.260;27.812;2023-05-12T10:23:24;100788.00;;;18.06;33.48
10115;BME280;5097;43.260;27.812;2023-05-12T10:26:09;100767.03;;;18.00;33.30
10115;BME280;5097;43.260;27.812;2023-05-12T10:28:54;100774.72;;;18.29;32.12
10115;BME280;5097;43.260;27.812;2023-05-12T10:31:39;100763.34;;;18.14;32.53
10115;BME280;5097;43.260;27.812;2023-05-12T10:34:29;100766.44;;;17.84;31.65
10115;BME280;5097;43.260;27.812;2023-05-12T10:37:13;100778.53;;;18.14;33.46
10115;BME280;5097;43.260;27.812;2023-05-12T10:39:57;100778.22;;;17.81;31.99
10115;BME280;5097;43.260;27.812;2023-05-12T10:42:49;100774.06;;;18.14;33.71
10115;BME280;5097;43.260;27.812;2023-05-12T10:45:34;100741.53;;;17.09;32.95
10115;BME280;5097;43.260;27.812;2023-05-12T10:48:20;100773.47;;;18.93;33.45
10115;BME280;5097;43.260;27.812;2023-05-12T10:51:08;100749.97;;;19.31;32.42
10115;BME280;5097;43.260;27.812;2023-05-12T10:53:56;100778.34;;;19.11;33.44
10115;BME280;5097;43.260;27.812;2023-05-12T10:56:42;100773.09;;;18.51;33.77
10115;BME280;5097;43.260;27.812;2023-05-12T10:59:29;100781.84;;;17.93;35.05
10115;BME280;5097;43.260;27.812;2023-05-12T11:02:15;100767.41;;;17.83;34.31
10115;BME280;5097;43.260;27.812;2023-05-12T11:05:02;100764.59;;;18.21;35.03
10115;BME280;5097;43.260;27.812;2023-05-12T11:07:48;100756.00;;;17.81;33.37
10115;BME280;5097;43.260;27.812;2023-05-12T11:10:34;100734.75;;;18.03;33.70
10115;BME280;5097;43.260;27.812;2023-05-12T11:13:18;100768.22;;;18.45;33.37
10115;BME280;5097;43.260;27.812;2023-05-12T11:16:03;100774.94;;;18.62;33.30
10115;BME280;5097;43.260;27.812;2023-05-12T11:18:47;100764.59;;;18.21;33.95
10115;BME280;5097;43.260;27.812;2023-05-12T11:21:34;100735.34;;;17.83;33.68
10115;BME280;5097;43.260;27.812;2023-05-12T11:24:19;100764.34;;;18.60;33.30
10115;BME280;5097;43.260;27.812;2023-05-12T11:27:10;100758.34;;;19.03;33.02
10115;BME280;5097;43.260;27.812;2023-05-12T11:29:55;100777.63;;;18.26;33.44
10115;BME280;5097;43.260;27.812;2023-05-12T11:32:40;100781.28;;;19.07;32.31
10115;BME280;5097;43.260;27.812;2023-05-12T11:35:29;100777.78;;;17.87;33.30
10115;BME280;5097;43.260;27.812;2023-05-12T11:38:15;100775.59;;;18.05;33.55
10115;BME280;5097;43.260;27.812;2023-05-12T11:40:59;100783.69;;;17.80;33.10
10115;BME280;5097;43.260;27.812;2023-05-12T11:43:43;100782.34;;;17.61;33.33
10115;BME280;5097;43.260;27.812;2023-05-12T11:46:28;100775.38;;;18.08;33.01
10115;BME280;5097;43.260;27.812;2023-05-12T11:49:12;100763.97;;;18.42;33.33
10115;BME280;5097;43.260;27.812;2023-05-12T11:51:58;100777.28;;;18.06;32.01
10115;BME280;5097;43.260;27.812;2023-05-12T11:54:48;100769.38;;;18.76;31.46
10115;BME280;5097;43.260;27.812;2023-05-12T11:57:34;100777.94;;;18.46;31.97
10115;BME280;5097;43.260;27.812;2023-05-12T12:00:26;100765.38;;;18.70;31.03
10115;BME280;5097;43.260;27.812;2023-05-12T12:03:11;100771.78;;;17.97;31.12
10115;BME280;5097;43.260;27.812;2023-05-12T12:05:58;100768.56;;;18.40;31.38
10115;BME280;5097;43.260;27.812;2023-05-12T12:08:52;100771.41;;;18.61;31.21
10115;BME280;5097;43.260;27.812;2023-05-12T12:11:38;100738.56;;;18.48;31.70
10115;BME280;5097;43.260;27.812;2023-05-12T12:14:22;100768.97;;;19.28;30.78
10115;BME280;5097;43.260;27.812;2023-05-12T12:17:06;100759.34;;;19.02;31.88
10115;BME280;5097;43.260;27.812;2023-05-12T12:19:50;100744.84;;;18.35;31.71
10115;BME280;5097;43.260;27.812;2023-05-12T12:22:34;100769.63;;;17.89;32.49
10115;BME280;5097;43.260;27.812;2023-05-12T12:25:18;100767.38;;;17.58;32.81
10115;BME280;5097;43.260;27.812;2023-05-12T12:28:04;100749.63;;;18.19;32.26
10115;BME280;5097;43.260;27.812;2023-05-12T12:30:48;100743.75;;;18.02;32.38
10115;BME280;5097;43.260;27.812;2023-05-12T12:33:32;100756.44;;;18.23;31.98
10115;BME280;5097;43.260;27.812;2023-05-12T12:36:16;100763.50;;;18.24;32.51
10115;BME280;5097;43.260;27.812;2023-05-12T12:39:00;100759.91;;;18.36;32.50
10115;BME280;5097;43.260;27.812;2023-05-12T12:41:44;100762.91;;;19.14;30.98
10115;BME280;5097;43.260;27.812;2023-05-12T12:44:30;100712.09;;;18.67;31.18
10115;BME280;5097;43.260;27.812;2023-05-12T12:47:15;100731.81;;;18.31;31.09
10115;BME280;5097;43.260;27.812;2023-05-12T12:49:59;100762.78;;;18.22;29.49
10115;BME280;5097;43.260;27.812;2023-05-12T12:52:45;100733.50;;;17.96;30.66
10115;BME280;5097;43.260;27.812;2023-05-12T12:55:29;100756.50;;;18.34;30.22
10115;BME280;5097;43.260;27.812;2023-05-12T12:58:13;100754.94;;;18.90;29.57
10115;BME280;5097;43.260;27.812;2023-05-12T13:00:58;100753.41;;;18.63;29.36
10115;BME280;5097;43.260;27.812;2023-05-12T13:03:42;100749.63;;;17.70;29.72
10115;BME280;5097;43.260;27.812;2023-05-12T13:06:26;100730.56;;;17.51;30.86
10115;BME280;5097;43.260;27.812;2023-05-12T13:09:11;100745.22;;;18.06;31.23
10115;BME280;5097;43.260;27.812;2023-05-12T13:11:55;100748.94;;;18.28;30.76
10115;BME280;5097;43.260;27.812;2023-05-12T13:14:39;100735.91;;;18.82;29.41
10115;BME280;5097;43.260;27.812;2023-05-12T13:17:24;100741.09;;;18.14;30.19
10115;BME280;5097;43.260;27.812;2023-05-12T13:20:09;100753.78;;;18.70;29.19
10115;BME280;5097;43.260;27.812;2023-05-12T13:22:53;100744.22;;;18.32;28.98
10115;BME280;5097;43.260;27.812;2023-05-12T13:25:37;100749.78;;;17.93;29.53
10115;BME280;5097;43.260;27.812;2023-05-12T13:28:21;100735.69;;;17.78;30.15
10115;BME280;5097;43.260;27.812;2023-05-12T13:31:05;100736.63;;;18.14;30.33
10115;BME280;5097;43.260;27.812;2023-05-12T13:33:51;100728.34;;;18.53;29.29
10115;BME280;5097;43.260;27.812;2023-05-12T13:36:35;100743.44;;;18.18;29.81
10115;BME280;5097;43.260;27.812;2023-05-12T13:39:19;100744.00;;;19.04;28.08
10115;BME280;5097;43.260;27.812;2023-05-12T13:42:03;100727.53;;;18.28;29.22
10115;BME280;5097;43.260;27.812;2023-05-12T13:44:47;100742.78;;;19.08;28.94
10115;BME280;5097;43.260;27.812;2023-05-12T13:47:31;100748.16;;;19.20;27.56
10115;BME280;5097;43.260;27.812;2023-05-12T13:50:17;100705.81;;;19.02;28.04
10115;BME280;5097;43.260;27.812;2023-05-12T13:53:01;100749.16;;;18.61;28.21
10115;BME280;5097;43.260;27.812;2023-05-12T13:55:45;100746.31;;;18.39;28.80
10115;BME280;5097;43.260;27.812;2023-05-12T13:58:28;100758.63;;;18.89;28.45
10115;BME280;5097;43.260;27.812;2023-05-12T14:01:12;100768.59;;;18.98;27.90
10115;BME280;5097;43.260;27.812;2023-05-12T14:03:57;100752.47;;;18.75;28.20
10115;BME280;5097;43.260;27.812;2023-05-12T14:06:42;100762.38;;;18.39;28.78
10115;BME280;5097;43.260;27.812;2023-05-12T14:09:27;100749.94;;;18.38;29.21
10115;BME280;5097;43.260;27.812;2023-05-12T14:12:11;100757.00;;;18.39;28.21
10115;BME280;5097;43.260;27.812;2023-05-12T14:14:55;100757.38;;;18.11;28.81
10115;BME280;5097;43.260;27.812;2023-05-12T14:17:59;100763.41;;;18.01;29.50
10115;BME280;5097;43.260;27.812;2023-05-12T14:20:43;100768.69;;;17.90;30.14
10115;BME280;5097;43.260;27.812;2023-05-12T14:23:28;100749.91;;;17.79;29.67
10115;BME280;5097;43.260;27.812;2023-05-12T14:26:13;100730.72;;;17.36;29.92